Terminal Aerodrome Forecast
Issued by NWS

Home | Current Version | Previous Version | Text Only | Print | Product List | Glossary On
Versions: 1 2 3 4 5 6 7 8 9 10 11 12 13 14 15 16 17 18 19 20 21 22 23 24 25 26 27 28
000
FTUS45 KGJT 302322
TAFASE
TAF
KASE 302322Z 3100/3124 VRB03KT P6SM VCTS BKN080CB
      TEMPO 3100/3103 VRB15G30KT -TSRA SCT050CB BKN080
     FM310300 18006KT P6SM VCTS SCT060CB BKN090
     FM310600 21005KT P6SM VCSH SCT060 BKN090
     FM311200 VRB03KT P6SM SCT090 BKN150
     FM311800 36006KT P6SM BKN200=

USA.gov is the U.S. government's official web portal to all federal, state and local government web resources and services.